createdAt,value
2019-01-17T00:02:35.687Z,99050.38
2019-01-17T00:05:41.515Z,99048.45
2019-01-17T00:08:54.672Z,99057.00
2019-01-17T00:11:54.900Z,99051.78
2019-01-17T00:14:51.304Z,99051.14
2019-01-17T00:17:51.239Z,99067.30
2019-01-17T00:20:59.285Z,99063.03
2019-01-17T00:24:13.406Z,99058.91
2019-01-17T00:27:22.804Z,99061.16
2019-01-17T00:30:32.801Z,99055.41
2019-01-17T00:33:44.820Z,99053.05
2019-01-17T00:36:45.846Z,99049.91
2019-01-17T00:39:42.681Z,99038.77
2019-01-17T00:42:39.633Z,99033.62
2019-01-17T00:45:47.111Z,99021.98
2019-01-17T00:48:57.383Z,99025.55
2019-01-17T00:52:04.575Z,99020.17
2019-01-17T00:55:11.253Z,99023.44
2019-01-17T00:58:16.174Z,99015.33
2019-01-17T01:01:34.096Z,99017.22
2019-01-17T01:04:50.663Z,99012.43
2019-01-17T01:08:12.129Z,99010.97
2019-01-17T01:11:21.210Z,99015.11
2019-01-17T01:14:32.747Z,99024.59
2019-01-17T01:17:29.517Z,99023.80
2019-01-17T01:20:34.050Z,99020.81
2019-01-17T01:23:36.328Z,99030.56
2019-01-17T01:26:56.917Z,99028.04
2019-01-17T01:30:04.836Z,99027.11
2019-01-17T01:33:16.497Z,99032.18
2019-01-17T01:36:19.714Z,99038.56
2019-01-17T01:39:29.202Z,99043.49
2019-01-17T01:42:33.036Z,99044.06
2019-01-17T01:45:47.792Z,99039.88
2019-01-17T01:48:55.849Z,99044.29
2019-01-17T01:52:16.938Z,99038.67
2019-01-17T01:55:07.117Z,99047.35
2019-01-17T01:57:56.916Z,99049.33
2019-01-17T02:00:46.698Z,99050.15
2019-01-17T02:03:36.408Z,99044.83
2019-01-17T02:06:26.788Z,99055.83
2019-01-17T02:09:17.092Z,99051.30
2019-01-17T02:12:08.023Z,99050.88
2019-01-17T02:14:59.197Z,99059.88
2019-01-17T02:17:49.163Z,99050.47
2019-01-17T02:20:39.445Z,99062.00
2019-01-17T02:23:29.491Z,99055.10
2019-01-17T02:26:19.492Z,99034.71
2019-01-17T02:29:09.311Z,99028.30
2019-01-17T02:31:58.957Z,99039.05
2019-01-17T02:34:49.237Z,99024.44
2019-01-17T02:37:39.312Z,99019.56
2019-01-17T02:40:28.966Z,99020.45
2019-01-17T02:43:19.179Z,99019.66
2019-01-17T02:46:09.063Z,99023.20
2019-01-17T02:48:58.872Z,99018.07
2019-01-17T02:51:49.013Z,99009.55
2019-01-17T02:54:38.766Z,99008.52
2019-01-17T02:57:28.482Z,99009.22
2019-01-17T03:00:19.395Z,99014.39
2019-01-17T03:03:08.977Z,99005.91
2019-01-17T03:05:58.719Z,98995.94
2019-01-17T03:08:48.650Z,98991.13
2019-01-17T03:11:38.929Z,98987.72
2019-01-17T03:14:30.031Z,98992.32
2019-01-17T03:17:19.948Z,98982.61
2019-01-17T03:20:13.119Z,98984.26
2019-01-17T03:23:03.294Z,98974.55
2019-01-17T03:25:53.130Z,98978.72
2019-01-17T03:28:43.245Z,98978.56
2019-01-17T03:31:33.024Z,98973.48
2019-01-17T03:34:23.038Z,98976.17
2019-01-17T03:37:12.843Z,98986.20
2019-01-17T03:40:02.656Z,98978.95
2019-01-17T03:42:52.652Z,98983.66
2019-01-17T03:45:42.694Z,98972.16
2019-01-17T03:48:32.838Z,98981.35
2019-01-17T03:51:22.640Z,98975.45
2019-01-17T03:54:12.726Z,98976.85
2019-01-17T03:57:02.493Z,98969.69
2019-01-17T03:59:52.524Z,98975.38
2019-01-17T04:02:42.702Z,98971.95
2019-01-17T04:05:32.959Z,98981.70
2019-01-17T04:08:23.014Z,98989.34
2019-01-17T04:11:12.739Z,98976.67
2019-01-17T04:14:02.654Z,98969.98
2019-01-17T04:16:52.550Z,98979.41
2019-01-17T04:19:42.410Z,98976.72
2019-01-17T04:22:32.438Z,98970.25
2019-01-17T04:25:21.973Z,98968.38
2019-01-17T04:28:12.080Z,98969.38
2019-01-17T04:31:02.219Z,98986.61
2019-01-17T04:33:52.332Z,98983.19
2019-01-17T04:36:42.671Z,98982.39
2019-01-17T04:39:32.404Z,98977.36
2019-01-17T04:42:22.246Z,98985.53
2019-01-17T04:45:13.973Z,98986.91
2019-01-17T04:48:04.300Z,98997.38
2019-01-17T04:50:53.959Z,98988.86
2019-01-17T04:53:43.828Z,98994.28
2019-01-17T04:56:33.580Z,98993.72
2019-01-17T04:59:23.953Z,98990.50
2019-01-17T05:02:14.010Z,99001.58
2019-01-17T05:05:04.476Z,98998.31
2019-01-17T05:07:54.586Z,98992.33
2019-01-17T05:10:44.364Z,98996.94
2019-01-17T05:13:34.433Z,99007.73
2019-01-17T05:16:24.626Z,99024.14
2019-01-17T05:19:14.735Z,99010.91
2019-01-17T05:22:04.832Z,99013.43
2019-01-17T05:24:55.335Z,99028.23
2019-01-17T05:27:45.466Z,99025.02
2019-01-17T05:30:35.568Z,99025.62
2019-01-17T05:33:25.247Z,99037.73
2019-01-17T05:36:15.487Z,99035.03
2019-01-17T05:39:08.218Z,99021.36
2019-01-17T05:41:58.341Z,99023.83
2019-01-17T05:44:48.498Z,99028.52
2019-01-17T05:47:38.017Z,99033.37
2019-01-17T05:50:28.201Z,99033.68
2019-01-17T05:53:17.663Z,99031.73
2019-01-17T05:56:07.580Z,99048.22
2019-01-17T05:58:57.262Z,99049.30
2019-01-17T06:01:46.914Z,99051.25
2019-01-17T06:04:37.888Z,99052.34
2019-01-17T06:07:28.063Z,99044.60
2019-01-17T06:10:18.150Z,99050.47
2019-01-17T06:13:08.618Z,99048.05
2019-01-17T06:15:59.359Z,99051.22
2019-01-17T06:18:48.866Z,99054.77
2019-01-17T06:21:38.863Z,99050.13
2019-01-17T06:24:28.892Z,99045.35
2019-01-17T06:27:19.111Z,99037.84
2019-01-17T06:30:11.728Z,99027.47
2019-01-17T06:33:01.253Z,99030.81
2019-01-17T06:35:50.779Z,99033.80
2019-01-17T06:38:40.403Z,99031.89
2019-01-17T06:41:30.366Z,99035.70
2019-01-17T06:44:20.691Z,99024.38
2019-01-17T06:47:10.431Z,99032.64
2019-01-17T06:50:00.217Z,99030.77
2019-01-17T06:52:50.292Z,99031.33
2019-01-17T06:55:40.454Z,99030.32
2019-01-17T06:58:30.237Z,99031.10
2019-01-17T07:01:20.141Z,99029.20
2019-01-17T07:04:10.124Z,99029.59
2019-01-17T07:07:00.295Z,99030.77
2019-01-17T07:09:50.220Z,99037.27
2019-01-17T07:12:40.198Z,99045.88
2019-01-17T07:15:30.272Z,99046.31
2019-01-17T07:18:20.633Z,99052.27
2019-01-17T07:21:10.448Z,99049.66
2019-01-17T07:24:00.411Z,99047.52
2019-01-17T07:26:50.334Z,99046.95
2019-01-17T07:29:40.297Z,99054.25
2019-01-17T07:32:30.150Z,99058.21
2019-01-17T07:35:20.127Z,99058.91
2019-01-17T07:38:10.538Z,99061.34
2019-01-17T07:40:59.946Z,99072.63
2019-01-17T07:43:49.700Z,99068.63
2019-01-17T07:46:39.369Z,99072.75
2019-01-17T07:49:29.262Z,99080.34
2019-01-17T07:52:19.109Z,99069.06
2019-01-17T07:55:09.731Z,99055.89
2019-01-17T07:57:59.688Z,99059.38
2019-01-17T08:00:49.354Z,99065.84
2019-01-17T08:03:39.500Z,99064.50
2019-01-17T08:06:29.567Z,99070.18
2019-01-17T08:09:19.609Z,99073.96
2019-01-17T08:12:09.626Z,99083.87
2019-01-17T08:14:59.617Z,99082.03
2019-01-17T08:17:49.566Z,99087.20
2019-01-17T08:20:39.683Z,99078.64
2019-01-17T08:23:34.515Z,99072.18
2019-01-17T08:26:20.752Z,99076.52
2019-01-17T08:29:10.706Z,99085.94
2019-01-17T08:32:00.661Z,99074.31
2019-01-17T08:34:50.600Z,99090.68
2019-01-17T08:37:40.448Z,99087.50
2019-01-17T08:40:33.634Z,99093.45
2019-01-17T08:43:23.398Z,99081.98
2019-01-17T08:46:13.296Z,99085.80
2019-01-17T08:49:03.622Z,99099.61
2019-01-17T08:51:53.668Z,99091.30
2019-01-17T08:54:43.422Z,99087.56
2019-01-17T08:57:33.043Z,99087.86
2019-01-17T09:00:25.768Z,99095.50
2019-01-17T09:03:15.375Z,99100.11
2019-01-17T09:06:05.500Z,99098.01
2019-01-17T09:08:55.342Z,99097.22
2019-01-17T09:11:45.266Z,99097.83
2019-01-17T09:14:35.473Z,99097.56
2019-01-17T09:17:25.632Z,99110.24
2019-01-17T09:20:15.711Z,99104.00
2019-01-17T09:23:05.882Z,99102.45
2019-01-17T09:25:56.101Z,99101.11
2019-01-17T09:28:46.162Z,99104.37
2019-01-17T09:31:36.261Z,99102.27
2019-01-17T09:34:25.868Z,99105.81
2019-01-17T09:37:16.050Z,99108.55
2019-01-17T09:40:07.995Z,99105.66
2019-01-17T09:42:58.072Z,99108.06
2019-01-17T09:45:48.068Z,99107.80
2019-01-17T09:48:37.870Z,99104.05
2019-01-17T09:51:28.195Z,99110.89
2019-01-17T09:54:18.060Z,99107.41
2019-01-17T09:57:08.312Z,99097.97
2019-01-17T09:59:58.459Z,99098.00
2019-01-17T10:02:48.110Z,99097.68
2019-01-17T10:05:38.046Z,99095.27
2019-01-17T10:08:27.832Z,99096.03
2019-01-17T10:11:17.490Z,99090.61
2019-01-17T10:14:07.736Z,99094.16
2019-01-17T10:17:41.845Z,99105.73
2019-01-17T10:21:00.722Z,99106.29
2019-01-17T10:24:54.079Z,99111.09
2019-01-17T10:28:33.722Z,99102.41
2019-01-17T10:32:06.415Z,99089.78
2019-01-17T10:35:20.587Z,99083.80
2019-01-17T10:38:57.984Z,99078.48
2019-01-17T10:42:12.675Z,99091.46
2019-01-17T10:46:46.029Z,99075.35
2019-01-17T10:50:17.928Z,99077.62
2019-01-17T10:53:46.189Z,99066.62
2019-01-17T10:57:33.183Z,99049.16
2019-01-17T11:01:07.784Z,99045.64
2019-01-17T11:04:31.010Z,99054.17
2019-01-17T11:08:10.146Z,99027.34
2019-01-17T11:11:32.088Z,99029.52
2019-01-17T11:15:49.254Z,99027.64
2019-01-17T11:19:29.604Z,99027.88
2019-01-17T11:23:28.586Z,99033.77
2019-01-17T11:26:55.480Z,99020.23
2019-01-17T11:30:23.171Z,99016.77
2019-01-17T11:34:16.785Z,99023.52
2019-01-17T11:38:07.927Z,99017.59
2019-01-17T11:41:42.122Z,99021.69
2019-01-17T11:45:27.678Z,99020.42
2019-01-17T11:49:25.834Z,99010.73
2019-01-17T11:53:23.264Z,99004.33
2019-01-17T11:57:16.111Z,98995.46
2019-01-17T12:01:02.653Z,98988.58
2019-01-17T12:04:31.864Z,98990.84
2019-01-17T12:07:21.831Z,98988.84
2019-01-17T12:10:11.838Z,98989.45
2019-01-17T12:13:02.296Z,98988.14
2019-01-17T12:15:51.978Z,98979.20
2019-01-17T12:18:42.046Z,98978.90
2019-01-17T12:21:33.068Z,98982.95
2019-01-17T12:24:23.271Z,98973.22
2019-01-17T12:27:12.726Z,98972.66
2019-01-17T12:30:02.734Z,98968.56
2019-01-17T12:32:52.731Z,98975.05
2019-01-17T12:35:42.915Z,98970.45
2019-01-17T12:38:32.738Z,98966.92
2019-01-17T12:41:23.289Z,98961.55
2019-01-17T12:44:13.738Z,98974.25
2019-01-17T12:47:03.347Z,98961.55
2019-01-17T12:49:53.348Z,98963.22
2019-01-17T12:52:44.539Z,98961.80
2019-01-17T12:55:34.758Z,98953.70
2019-01-17T12:58:24.957Z,98954.47
2019-01-17T13:01:16.077Z,98956.33
2019-01-17T13:04:06.857Z,98951.70
2019-01-17T13:06:56.780Z,98942.25
2019-01-17T13:09:46.579Z,98944.93
2019-01-17T13:12:37.217Z,98944.19
2019-01-17T13:15:27.286Z,98934.16
2019-01-17T13:18:17.361Z,98938.26
2019-01-17T13:21:07.451Z,98934.20
2019-01-17T13:23:57.586Z,98929.90
2019-01-17T13:26:47.727Z,98936.65
2019-01-17T13:29:37.953Z,98928.20
2019-01-17T13:32:27.847Z,98924.41
2019-01-17T13:35:18.137Z,98920.66
2019-01-17T13:38:08.240Z,98918.17
2019-01-17T13:40:57.962Z,98926.02
2019-01-17T13:43:47.727Z,98923.55
2019-01-17T13:46:37.769Z,98922.75
2019-01-17T13:49:27.303Z,98917.33
2019-01-17T13:52:17.488Z,98911.87
2019-01-17T13:55:08.426Z,98910.72
2019-01-17T13:57:58.117Z,98904.77
2019-01-17T14:00:48.157Z,98903.67
2019-01-17T14:03:38.391Z,98908.23
2019-01-17T14:06:28.761Z,98903.34
2019-01-17T14:09:18.264Z,98907.97
2019-01-17T14:12:08.577Z,98894.98
2019-01-17T14:14:58.318Z,98894.97
2019-01-17T14:17:48.034Z,98886.88
2019-01-17T14:20:38.342Z,98886.08
2019-01-17T14:23:28.171Z,98879.06
2019-01-17T14:26:18.187Z,98874.77
2019-01-17T14:29:09.023Z,98886.39
2019-01-17T14:31:58.884Z,98880.70
2019-01-17T14:34:49.093Z,98872.86
2019-01-17T14:37:39.058Z,98875.54
2019-01-17T14:40:29.126Z,98868.75
2019-01-17T14:43:19.050Z,98867.93
2019-01-17T14:46:09.292Z,98880.64
2019-01-17T14:49:00.953Z,98877.39
2019-01-17T14:51:51.619Z,98880.62
2019-01-17T14:54:43.381Z,98876.25
2019-01-17T14:57:34.834Z,98872.71
2019-01-17T15:00:28.530Z,98877.36
2019-01-17T15:03:18.722Z,98878.38
2019-01-17T15:06:09.921Z,98880.52
2019-01-17T15:08:59.734Z,98869.38
2019-01-17T15:11:49.490Z,98856.09
2019-01-17T15:14:38.988Z,98863.53
2019-01-17T15:17:28.778Z,98854.88
2019-01-17T15:20:20.524Z,98856.45
2019-01-17T15:23:12.339Z,98851.36
2019-01-17T15:26:02.360Z,98849.40
2019-01-17T15:28:52.601Z,98848.34
2019-01-17T15:31:42.784Z,98857.51
2019-01-17T15:34:32.473Z,98856.67
2019-01-17T15:37:22.423Z,98858.28
2019-01-17T15:40:19.821Z,98856.09
2019-01-17T15:43:09.926Z,98852.57
2019-01-17T15:45:59.751Z,98846.60
2019-01-17T15:48:49.703Z,98852.81
2019-01-17T15:51:39.068Z,98843.94
2019-01-17T15:54:28.979Z,98843.17
2019-01-17T15:57:18.665Z,98846.08
2019-01-17T16:00:14.626Z,98852.23
2019-01-17T16:03:04.442Z,98851.14
2019-01-17T16:05:54.664Z,98850.03
2019-01-17T16:08:44.582Z,98850.09
2019-01-17T16:11:34.737Z,98844.64
2019-01-17T16:14:24.505Z,98847.31
2019-01-17T16:17:14.588Z,98841.63
2019-01-17T16:20:05.164Z,98838.16
2019-01-17T16:22:55.539Z,98832.39
2019-01-17T16:25:45.427Z,98830.66
2019-01-17T16:28:35.019Z,98827.15
2019-01-17T16:31:25.231Z,98830.55
2019-01-17T16:34:15.344Z,98840.75
2019-01-17T16:37:05.522Z,98841.19
2019-01-17T16:39:55.929Z,98836.82
2019-01-17T16:42:46.266Z,98841.84
2019-01-17T16:45:36.094Z,98851.30
2019-01-17T16:48:26.070Z,98848.56
2019-01-17T16:51:16.148Z,98856.87
2019-01-17T16:54:06.585Z,98861.92
2019-01-17T16:56:56.909Z,98863.49
2019-01-17T16:59:47.001Z,98867.75
2019-01-17T17:02:36.158Z,98868.58
2019-01-17T17:05:26.221Z,98869.44
2019-01-17T17:08:16.515Z,98875.59
2019-01-17T17:11:06.777Z,98867.27
2019-01-17T17:13:56.170Z,98889.38
2019-01-17T17:16:45.759Z,98907.16
2019-01-17T17:19:35.853Z,98912.88
2019-01-17T17:22:25.748Z,98942.84
2019-01-17T17:25:15.690Z,98945.29
2019-01-17T17:28:06.126Z,98962.41
2019-01-17T17:30:56.546Z,98970.19
2019-01-17T17:33:46.162Z,98962.89
2019-01-17T17:36:36.466Z,98951.19
2019-01-17T17:39:26.058Z,98960.72
2019-01-17T17:42:16.385Z,98968.73
2019-01-17T17:45:07.891Z,98970.14
2019-01-17T17:48:00.677Z,98983.80
2019-01-17T17:50:50.308Z,99000.60
2019-01-17T17:53:40.107Z,99007.25
2019-01-17T17:56:31.197Z,99009.69
2019-01-17T17:59:21.745Z,99016.91
2019-01-17T18:02:19.616Z,99027.05
2019-01-17T18:05:14.570Z,99030.80
2019-01-17T18:08:04.896Z,99046.13
2019-01-17T18:10:54.739Z,99051.19
2019-01-17T18:13:45.130Z,99059.05
2019-01-17T18:16:34.527Z,99070.55
2019-01-17T18:19:24.666Z,99072.64
2019-01-17T18:22:15.040Z,99080.81
2019-01-17T18:25:05.505Z,99078.72
2019-01-17T18:27:55.490Z,99089.38
2019-01-17T18:30:45.412Z,99095.95
2019-01-17T18:33:35.561Z,99111.35
2019-01-17T18:36:25.519Z,99118.72
2019-01-17T18:39:15.677Z,99127.38
2019-01-17T18:42:06.006Z,99142.47
2019-01-17T18:44:56.295Z,99157.89
2019-01-17T18:47:47.377Z,99156.20
2019-01-17T18:50:38.470Z,99160.25
2019-01-17T18:53:28.868Z,99171.57
2019-01-17T18:56:18.530Z,99176.03
2019-01-17T18:59:08.068Z,99181.64
2019-01-17T19:01:58.399Z,99173.30
2019-01-17T19:04:48.991Z,99179.56
2019-01-17T19:07:40.695Z,99185.71
2019-01-17T19:10:30.436Z,99188.34
2019-01-17T19:13:19.491Z,99201.94
2019-01-17T19:16:09.581Z,99214.30
2019-01-17T19:18:59.710Z,99221.95
2019-01-17T19:21:48.835Z,99226.95
2019-01-17T19:24:38.140Z,99223.44
2019-01-17T19:27:28.187Z,99232.73
2019-01-17T19:30:21.385Z,99238.68
2019-01-17T19:33:10.639Z,99246.44
2019-01-17T19:36:00.470Z,99253.50
2019-01-17T19:38:50.742Z,99261.45
2019-01-17T19:41:40.861Z,99257.74
2019-01-17T19:44:40.165Z,99261.45
2019-01-17T19:47:30.098Z,99259.75
2019-01-17T19:50:29.913Z,99267.63
2019-01-17T19:53:23.092Z,99264.58
2019-01-17T19:56:13.232Z,99272.45
2019-01-17T19:59:03.472Z,99272.59
2019-01-17T20:01:53.472Z,99292.05
2019-01-17T20:04:43.294Z,99289.60
2019-01-17T20:07:33.336Z,99302.05
2019-01-17T20:10:27.206Z,99312.95
2019-01-17T20:13:16.845Z,99307.69
2019-01-17T20:16:07.247Z,99313.36
2019-01-17T20:18:57.480Z,99308.42
2019-01-17T20:21:47.477Z,99322.61
2019-01-17T20:24:37.509Z,99323.27
2019-01-17T20:27:27.760Z,99320.28
2019-01-17T20:30:20.813Z,99318.56
2019-01-17T20:33:10.357Z,99317.66
2019-01-17T20:36:00.013Z,99327.92
2019-01-17T20:38:49.666Z,99330.97
2019-01-17T20:41:39.677Z,99332.44
2019-01-17T20:44:29.521Z,99350.03
2019-01-17T20:47:19.768Z,99357.87
2019-01-17T20:50:14.092Z,99357.45
2019-01-17T20:53:03.742Z,99357.91
2019-01-17T20:55:53.799Z,99360.27
2019-01-17T20:58:43.963Z,99367.92
2019-01-17T21:02:03.232Z,99376.87
2019-01-17T21:04:54.294Z,99396.02
2019-01-17T21:07:44.257Z,99405.70
2019-01-17T21:10:34.170Z,99410.83
2019-01-17T21:13:24.489Z,99428.57
2019-01-17T21:16:14.375Z,99425.35
2019-01-17T21:19:04.819Z,99422.17
2019-01-17T21:21:55.311Z,99427.05
2019-01-17T21:24:44.866Z,99441.62
2019-01-17T21:27:34.419Z,99443.56
2019-01-17T21:30:25.060Z,99449.33
2019-01-17T21:33:14.884Z,99456.72
2019-01-17T21:36:04.801Z,99454.33
2019-01-17T21:38:54.638Z,99454.23
2019-01-17T21:41:44.433Z,99462.48
2019-01-17T21:44:35.120Z,99468.56
2019-01-17T21:47:25.315Z,99475.06
2019-01-17T21:50:40.001Z,99473.22
2019-01-17T21:53:29.894Z,99479.08
2019-01-17T21:56:19.788Z,99483.21
2019-01-17T21:59:09.162Z,99483.02
2019-01-17T22:01:59.023Z,99496.27
2019-01-17T22:04:49.080Z,99492.16
2019-01-17T22:07:39.065Z,99497.13
2019-01-17T22:10:29.422Z,99501.01
2019-01-17T22:13:19.610Z,99504.52
2019-01-17T22:16:09.654Z,99512.15
2019-01-17T22:18:59.587Z,99512.31
2019-01-17T22:21:49.914Z,99508.42
2019-01-17T22:24:40.195Z,99513.77
2019-01-17T22:27:30.353Z,99509.88
2019-01-17T22:30:26.147Z,99513.89
2019-01-17T22:33:16.248Z,99525.83
2019-01-17T22:36:06.599Z,99514.72
2019-01-17T22:38:56.373Z,99517.09
2019-01-17T22:41:46.175Z,99514.63
2019-01-17T22:44:36.211Z,99528.64
2019-01-17T22:47:26.202Z,99522.48
2019-01-17T22:50:17.490Z,99534.19
2019-01-17T22:53:07.480Z,99524.44
2019-01-17T22:55:57.302Z,99532.02
2019-01-17T22:58:47.270Z,99532.75
2019-01-17T23:01:37.594Z,99540.89
2019-01-17T23:04:27.146Z,99548.40
2019-01-17T23:07:16.879Z,99547.47
2019-01-17T23:10:07.585Z,99540.46
2019-01-17T23:12:57.393Z,99549.93
2019-01-17T23:15:47.112Z,99557.84
2019-01-17T23:18:37.251Z,99552.81
2019-01-17T23:21:27.461Z,99560.64
2019-01-17T23:24:17.350Z,99561.44
2019-01-17T23:27:06.994Z,99556.30
2019-01-17T23:29:57.019Z,99566.67
2019-01-17T23:32:47.200Z,99570.40
2019-01-17T23:35:37.656Z,99580.69
2019-01-17T23:38:27.371Z,99575.73
2019-01-17T23:41:16.754Z,99583.76
2019-01-17T23:44:07.124Z,99589.94
2019-01-17T23:46:57.243Z,99585.09
2019-01-17T23:49:47.197Z,99592.49
2019-01-17T23:52:36.885Z,99589.82
2019-01-17T23:55:26.667Z,99593.22
2019-01-17T23:58:17.626Z,99600.62
